createdAt,value
2022-12-09T00:00:36.671Z,98893.34
2022-12-09T00:05:41.230Z,98897.75
2022-12-09T00:10:45.016Z,98893.25
2022-12-09T00:15:46.937Z,98889.56
2022-12-09T00:20:48.706Z,98895.72
2022-12-09T00:25:50.744Z,98896.63
2022-12-09T00:30:52.436Z,98891.69
2022-12-09T00:35:54.162Z,98883.31
2022-12-09T00:40:55.873Z,98888.88
2022-12-09T00:45:57.752Z,98895.53
2022-12-09T00:50:59.679Z,98895.38
2022-12-09T00:56:01.859Z,98883.56
2022-12-09T01:01:04.160Z,98895.06
2022-12-09T01:06:17.228Z,98891.91
2022-12-09T01:11:29.422Z,98901.91
2022-12-09T01:16:33.930Z,98906.13
2022-12-09T01:21:36.026Z,98911.84
2022-12-09T01:26:40.850Z,98908.44
2022-12-09T01:31:42.818Z,98913.75
2022-12-09T01:36:44.752Z,98912.94
2022-12-09T01:41:46.552Z,98911.22
2022-12-09T01:46:49.787Z,98913.28
2022-12-09T01:52:24.316Z,98908.31
2022-12-09T01:57:26.502Z,98909.63
2022-12-09T02:02:30.751Z,98905.66
2022-12-09T02:07:33.475Z,98900.69
2022-12-09T02:12:57.091Z,98896.38
2022-12-09T02:18:07.739Z,98890.91
2022-12-09T02:23:22.991Z,98886.38
2022-12-09T02:28:59.318Z,98886.25
2022-12-09T02:34:23.217Z,98871.16
2022-12-09T02:39:38.148Z,98886.22
2022-12-09T02:44:43.934Z,98883.59
2022-12-09T02:49:54.881Z,98876.38
2022-12-09T02:54:58.523Z,98878.16
2022-12-09T03:00:00.683Z,98875.13
2022-12-09T03:05:27.359Z,98877.38
2022-12-09T03:10:49.535Z,98866.75
2022-12-09T03:15:59.538Z,98869.84
2022-12-09T03:21:03.888Z,98871.63
2022-12-09T03:26:07.395Z,98865.13
2022-12-09T03:31:14.862Z,98868.00
2022-12-09T03:36:18.454Z,98872.06
2022-12-09T03:41:32.068Z,98869.03
2022-12-09T03:46:34.016Z,98868.66
2022-12-09T03:51:41.224Z,98861.13
2022-12-09T03:56:48.161Z,98858.47
2022-12-09T04:01:51.210Z,98857.84
2022-12-09T04:06:54.619Z,98857.00
2022-12-09T04:11:56.307Z,98856.38
2022-12-09T04:16:58.192Z,98849.31
2022-12-09T04:22:00.124Z,98846.34
2022-12-09T04:27:02.281Z,98847.50
2022-12-09T04:32:04.474Z,98843.72
2022-12-09T04:37:06.466Z,98839.03
2022-12-09T04:42:08.738Z,98833.13
2022-12-09T04:47:10.622Z,98840.09
2022-12-09T04:52:12.558Z,98835.53
2022-12-09T04:57:14.438Z,98850.22
2022-12-09T05:02:16.361Z,98849.28
2022-12-09T05:07:18.676Z,98857.78
2022-12-09T05:12:20.549Z,98856.69
2022-12-09T05:17:22.730Z,98844.22
2022-12-09T05:22:24.593Z,98858.69
2022-12-09T05:27:26.581Z,98853.94
2022-12-09T05:32:30.807Z,98849.16
2022-12-09T05:37:32.843Z,98858.59
2022-12-09T05:42:40.905Z,98850.63
2022-12-09T05:47:43.344Z,98846.91
2022-12-09T05:52:45.565Z,98842.09
2022-12-09T05:57:47.666Z,98848.97
2022-12-09T06:02:49.568Z,98844.97
2022-12-09T06:07:51.573Z,98842.13
2022-12-09T06:12:55.439Z,98838.09
2022-12-09T06:17:57.323Z,98842.50
2022-12-09T06:22:59.513Z,98838.00
2022-12-09T06:28:01.466Z,98842.66
2022-12-09T06:33:17.275Z,98844.47
2022-12-09T06:38:25.001Z,98840.88
2022-12-09T06:43:27.068Z,98849.69
2022-12-09T06:48:29.312Z,98840.53
2022-12-09T06:53:31.741Z,98837.72
2022-12-09T06:58:33.873Z,98830.69
2022-12-09T07:03:35.633Z,98835.53
2022-12-09T07:08:37.758Z,98841.81
2022-12-09T07:13:39.928Z,98848.63
2022-12-09T07:18:42.167Z,98846.44
2022-12-09T07:23:44.766Z,98854.31
2022-12-09T07:28:48.837Z,98855.75
2022-12-09T07:33:51.741Z,98851.16
2022-12-09T07:39:21.764Z,98853.22
2022-12-09T07:44:25.350Z,98853.22
2022-12-09T07:49:27.436Z,98857.66
2022-12-09T07:54:29.617Z,98863.53
2022-12-09T07:59:31.779Z,98863.19
2022-12-09T08:04:35.513Z,98867.91
2022-12-09T08:09:37.774Z,98854.81
2022-12-09T08:14:39.778Z,98858.03
2022-12-09T08:19:42.125Z,98861.22
2022-12-09T08:24:44.176Z,98862.66
2022-12-09T08:29:46.134Z,98866.91
2022-12-09T08:34:48.189Z,98869.56
2022-12-09T08:39:50.245Z,98863.44
2022-12-09T08:44:57.111Z,98861.81
2022-12-09T08:50:04.139Z,98859.06
2022-12-09T08:55:06.963Z,98856.91
2022-12-09T09:00:09.534Z,98839.13
2022-12-09T09:05:12.435Z,98840.56
2022-12-09T09:10:14.665Z,98838.28
2022-12-09T09:15:17.567Z,98840.56
2022-12-09T09:20:20.086Z,98842.13
2022-12-09T09:25:21.931Z,98834.78
2022-12-09T09:30:23.780Z,98833.72
2022-12-09T09:35:26.020Z,98833.47
2022-12-09T09:40:29.615Z,98834.16
2022-12-09T09:45:31.414Z,98824.94
2022-12-09T09:50:44.596Z,98823.41
2022-12-09T09:55:53.373Z,98815.59
2022-12-09T10:01:12.219Z,98803.53
2022-12-09T10:06:50.070Z,98803.03
2022-12-09T10:12:05.749Z,98795.53
2022-12-09T10:17:20.502Z,98787.13
2022-12-09T10:22:29.732Z,98779.19
2022-12-09T10:27:44.667Z,98771.91
2022-12-09T10:32:47.598Z,98762.50
2022-12-09T10:37:54.272Z,98763.63
2022-12-09T10:43:21.504Z,98748.84
2022-12-09T10:48:34.413Z,98746.13
2022-12-09T10:53:36.891Z,98745.41
2022-12-09T10:58:38.757Z,98744.03
2022-12-09T11:03:46.774Z,98742.34
2022-12-09T11:08:56.606Z,98734.22
2022-12-09T11:13:58.956Z,98725.63
2022-12-09T11:19:00.938Z,98725.75
2022-12-09T11:24:04.872Z,98729.78
2022-12-09T11:29:17.255Z,98729.44
2022-12-09T11:34:27.417Z,98731.91
2022-12-09T11:39:33.452Z,98729.44
2022-12-09T11:44:36.177Z,98728.81
2022-12-09T11:50:13.051Z,98735.44
2022-12-09T11:55:23.005Z,98726.53
2022-12-09T12:00:30.625Z,98725.63
2022-12-09T12:05:39.304Z,98730.16
2022-12-09T12:10:51.772Z,98720.63
2022-12-09T12:16:14.340Z,98722.84
2022-12-09T12:21:22.376Z,98725.78
2022-12-09T12:26:28.837Z,98718.53
2022-12-09T12:32:04.765Z,98708.78
2022-12-09T12:37:39.528Z,98716.88
2022-12-09T12:43:08.246Z,98710.97
2022-12-09T12:48:20.456Z,98701.06
2022-12-09T12:53:57.263Z,98694.13
2022-12-09T12:59:12.644Z,98693.50
2022-12-09T13:04:24.714Z,98684.13
2022-12-09T13:09:41.688Z,98682.78
2022-12-09T13:14:55.529Z,98691.00
2022-12-09T13:20:01.994Z,98685.34
2022-12-09T13:25:17.963Z,98686.22
2022-12-09T13:30:30.671Z,98674.22
2022-12-09T13:35:41.307Z,98671.00
2022-12-09T13:40:43.120Z,98670.19
2022-12-09T13:45:44.816Z,98675.56
2022-12-09T13:50:49.261Z,98670.84
2022-12-09T13:55:53.653Z,98665.13
2022-12-09T14:01:04.905Z,98662.94
2022-12-09T14:06:27.764Z,98663.16
2022-12-09T14:11:38.373Z,98676.84
2022-12-09T14:16:40.048Z,98665.28
2022-12-09T14:21:41.705Z,98661.50
2022-12-09T14:26:47.840Z,98662.81
2022-12-09T14:31:58.574Z,98658.72
2022-12-09T14:37:27.044Z,98666.44
2022-12-09T14:42:42.804Z,98660.69
2022-12-09T14:47:48.053Z,98661.28
2022-12-09T14:53:02.859Z,98652.75
2022-12-09T14:58:05.006Z,98648.78
2022-12-09T15:03:33.214Z,98656.47
2022-12-09T15:08:39.442Z,98653.97
2022-12-09T15:13:43.986Z,98647.34
2022-12-09T15:18:46.480Z,98642.41
2022-12-09T15:23:48.376Z,98647.13
2022-12-09T15:28:52.123Z,98645.78
2022-12-09T15:33:56.737Z,98639.34
2022-12-09T15:39:27.393Z,98638.25
2022-12-09T15:44:43.927Z,98647.03
2022-12-09T15:50:04.253Z,98651.00
2022-12-09T15:55:11.186Z,98655.97
2022-12-09T16:00:13.952Z,98662.50
2022-12-09T16:05:22.639Z,98653.22
2022-12-09T16:10:26.938Z,98661.50
2022-12-09T16:15:50.929Z,98656.13
2022-12-09T16:21:12.693Z,98650.28
2022-12-09T16:26:36.237Z,98647.47
2022-12-09T16:31:38.269Z,98660.44
2022-12-09T16:36:53.406Z,98655.00
2022-12-09T16:41:58.820Z,98642.56
2022-12-09T16:47:13.202Z,98650.56
2022-12-09T16:52:18.150Z,98646.66
2022-12-09T16:57:20.837Z,98641.34
2022-12-09T17:02:33.133Z,98644.53
2022-12-09T17:07:34.922Z,98631.03
2022-12-09T17:12:36.668Z,98639.97
2022-12-09T17:17:38.453Z,98630.44
2022-12-09T17:22:40.376Z,98633.16
2022-12-09T17:27:42.032Z,98634.75
2022-12-09T17:32:43.702Z,98632.59
2022-12-09T17:37:45.411Z,98640.72
2022-12-09T17:42:47.069Z,98647.88
2022-12-09T17:47:49.975Z,98653.25
2022-12-09T17:52:51.644Z,98654.00
2022-12-09T17:57:54.392Z,98657.50
2022-12-09T18:02:56.184Z,98666.25
2022-12-09T18:07:57.858Z,98671.66
2022-12-09T18:12:59.722Z,98675.72
2022-12-09T18:18:01.419Z,98673.22
2022-12-09T18:23:03.090Z,98683.50
2022-12-09T18:28:05.730Z,98678.81
2022-12-09T18:33:07.484Z,98686.56
2022-12-09T18:38:12.622Z,98683.09
2022-12-09T18:43:14.684Z,98697.09
2022-12-09T18:48:16.365Z,98683.13
2022-12-09T18:53:18.064Z,98699.06
2022-12-09T18:58:36.524Z,98695.34
2022-12-09T19:03:42.194Z,98698.13
2022-12-09T19:08:43.863Z,98688.34
2022-12-09T19:13:45.513Z,98688.25
2022-12-09T19:18:47.759Z,98701.34
2022-12-09T19:23:49.483Z,98690.72
2022-12-09T19:28:53.708Z,98697.00
2022-12-09T19:34:01.130Z,98698.78
2022-12-09T19:39:08.312Z,98702.22
2022-12-09T19:44:15.316Z,98700.31
2022-12-09T19:49:21.180Z,98696.19
2022-12-09T19:54:28.288Z,98700.97
2022-12-09T19:59:30.404Z,98707.53
2022-12-09T20:04:48.730Z,98714.91
2022-12-09T20:09:51.149Z,98704.88
2022-12-09T20:14:52.796Z,98700.75
2022-12-09T20:19:54.495Z,98700.75
2022-12-09T20:24:56.193Z,98711.63
2022-12-09T20:29:57.858Z,98709.28
2022-12-09T20:35:05.242Z,98721.84
2022-12-09T20:40:10.973Z,98712.22
2022-12-09T20:45:12.632Z,98717.63
2022-12-09T20:50:14.312Z,98716.41
2022-12-09T20:55:16.175Z,98718.72
2022-12-09T21:00:18.015Z,98724.25
2022-12-09T21:05:19.703Z,98717.75
2022-12-09T21:10:21.485Z,98722.84
2022-12-09T21:15:24.386Z,98712.22
2022-12-09T21:20:26.155Z,98715.34
2022-12-09T21:25:27.873Z,98705.69
2022-12-09T21:30:29.685Z,98714.13
2022-12-09T21:35:32.026Z,98712.19
2022-12-09T21:40:34.195Z,98726.91
2022-12-09T21:45:35.965Z,98728.13
2022-12-09T21:50:37.770Z,98729.78
2022-12-09T21:55:39.552Z,98725.13
2022-12-09T22:00:41.364Z,98732.47
2022-12-09T22:05:43.220Z,98728.16
2022-12-09T22:10:45.215Z,98728.88
2022-12-09T22:15:46.904Z,98752.59
2022-12-09T22:21:22.953Z,98744.78
2022-12-09T22:26:13.680Z,98748.16
2022-12-09T22:31:21.503Z,98744.31
2022-12-09T22:36:23.486Z,98742.59
2022-12-09T22:41:27.756Z,98750.63
2022-12-09T22:46:32.338Z,98753.00
2022-12-09T22:51:36.594Z,98744.53
2022-12-09T22:56:41.189Z,98745.38
2022-12-09T23:01:45.995Z,98747.41
2022-12-09T23:06:48.511Z,98746.22
2022-12-09T23:11:52.657Z,98752.31
2022-12-09T23:16:54.358Z,98749.97
2022-12-09T23:21:56.033Z,98752.22
2022-12-09T23:26:57.737Z,98748.97
2022-12-09T23:31:59.413Z,98755.66
2022-12-09T23:37:01.086Z,98742.38
2022-12-09T23:42:02.778Z,98750.09
2022-12-09T23:47:04.630Z,98747.09
2022-12-09T23:52:06.370Z,98751.97
2022-12-09T23:57:08.077Z,98766.19
